ROMMA est une association bénévole à but non lucratif. Votre soutien est indispensable : ADHERER à ROMMA ou FAIRE un DON

Saint-Léger-les-Mélèzes - (05, Hautes-Alpes)

Champsaur (1245 m)   Longitude: 6° 11' 42" E    Latitude: 44° 38' 38" N Station partenaire n°51
 

Détail journalier du     <<     >>

Température Precipitation Humidité Vent Dir Rafale Dir. rafale Ensol.
Heure (°C) (mm) (%) (km/h) (km/h) (min)
01:00 12.80832S6S0
02:00 13.20811S5S0
03:00 13.00821SSE8S0
04:00 13.20821SSO5SSO0
05:00 12.90821SSO5SSO0
06:00 12.10843SSO6SSO0
07:00 11.30861SSO6SSO0
08:00 10.60882SSO8SSO0
09:00 11.20871SSO5SSO0
10:00 14.707603SSO30
11:00 15.607505ONO0
12:00 17.00701ONO6ONO0
13:00 19.70432ONO10NO20
14:00 20.60442O11S60
15:00 21.90382SO13NO60
16:00 21.70412ONO10O30
17:00 21.70372ONO15NO60
18:00 20.40373SSO16OSO50
19:00 17.90422S8SO0
20:00 16.30451S11SSE0
21:00 15.80481SSO11SSE0
22:00 15.20511SO11SSE0
23:00 13.70571SSO10S0
minuit 12.806203SSO0

Graphique du 27-09-2019

 

Serveur OMMA